Time;durP1;ratioP1;P1;durP2;ratioP2;P2;SDS_P1;SDS_P2;PMS_P1;PMS_P2;Temp;Humidity;BMP_temperature;BMP_pressure;BME280_temperature;BME280_humidity;BME280_pressure;Samples;Min_cycle;Max_cycle;Signal;HPM_P1;HPM_P2
2021/09/28 00:00:33;;;;;;;3.80;1.83;;;14.90;99.90;;;;;;5029174;28;20196;-71
2021/09/28 00:03:01;;;;;;;3.70;1.63;;;15.00;99.90;;;;;;5028539;28;20208;-71
2021/09/28 00:05:29;;;;;;;3.97;1.88;;;14.90;99.90;;;;;;5023748;28;20211;-72
2021/09/28 00:07:56;;;;;;;2.07;1.83;;;14.90;99.90;;;;;;5023768;28;20588;-72
2021/09/28 00:10:23;;;;;;;4.37;2.00;;;14.90;99.90;;;;;;5028389;28;20228;-71
2021/09/28 00:12:50;;;;;;;3.73;1.80;;;14.90;99.90;;;;;;5026040;28;20208;-72
2021/09/28 00:15:18;;;;;;;4.23;1.87;;;14.80;99.90;;;;;;5022184;28;20227;-71
2021/09/28 00:17:45;;;;;;;3.50;1.90;;;14.80;99.90;;;;;;5024327;28;20570;-71
2021/09/28 00:20:13;;;;;;;3.53;1.67;;;14.80;99.90;;;;;;5030662;28;20215;-71
2021/09/28 00:22:42;;;;;;;3.33;1.80;;;14.80;99.90;;;;;;5027205;28;20211;-72
2021/09/28 00:25:10;;;;;;;3.63;2.20;;;14.70;99.90;;;;;;5031530;28;20733;-71
2021/09/28 00:27:37;;;;;;;4.17;2.33;;;14.70;99.90;;;;;;5028473;28;20201;-71
2021/09/28 00:30:05;;;;;;;6.47;2.37;;;14.70;99.90;;;;;;5029181;28;20574;-71
2021/09/28 00:32:32;;;;;;;4.37;1.80;;;14.60;99.90;;;;;;5022626;28;20566;-72
2021/09/28 00:34:59;;;;;;;3.60;2.37;;;14.60;99.90;;;;;;5026493;28;20223;-72
2021/09/28 00:37:26;;;;;;;5.13;2.60;;;14.60;99.90;;;;;;5023208;28;20302;-72
2021/09/28 00:39:54;;;;;;;2.50;2.20;;;14.60;99.90;;;;;;5028996;28;20213;-72
2021/09/28 00:42:21;;;;;;;6.10;2.70;;;14.60;99.90;;;;;;5026914;28;20206;-71
2021/09/28 00:44:49;;;;;;;5.90;2.50;;;14.60;99.90;;;;;;5029312;28;20195;-71
2021/09/28 00:47:17;;;;;;;3.13;2.83;;;14.60;99.90;;;;;;5026827;28;20569;-72
2021/09/28 00:49:46;;;;;;;5.93;2.50;;;14.50;99.90;;;;;;5020789;28;20204;-71
2021/09/28 00:52:16;;;;;;;3.97;2.20;;;14.60;99.90;;;;;;5025708;28;20204;-72
2021/09/28 00:54:45;;;;;;;7.67;2.50;;;14.60;99.90;;;;;;5023938;28;20219;-72
2021/09/28 00:57:15;;;;;;;4.63;2.40;;;14.60;99.90;;;;;;5026946;28;20196;-72
2021/09/28 00:59:42;;;;;;;6.13;3.07;;;14.70;99.90;;;;;;5024100;28;20214;-71
2021/09/28 01:02:10;;;;;;;7.03;2.67;;;14.60;99.90;;;;;;5026973;28;20208;-72
2021/09/28 01:04:37;;;;;;;4.07;2.80;;;14.60;99.90;;;;;;5028343;28;20199;-71
2021/09/28 01:07:06;;;;;;;5.73;2.77;;;14.60;99.90;;;;;;5027915;28;20207;-71
2021/09/28 01:09:33;;;;;;;6.40;3.10;;;14.60;99.90;;;;;;5028202;28;20199;-72
2021/09/28 01:12:00;;;;;;;6.23;3.87;;;14.50;99.90;;;;;;5029937;28;20204;-72
2021/09/28 01:14:28;;;;;;;7.33;3.47;;;14.40;99.90;;;;;;5024090;28;20219;-71
2021/09/28 01:16:55;;;;;;;4.93;3.70;;;14.50;99.90;;;;;;5025116;28;20199;-72
2021/09/28 01:19:22;;;;;;;5.87;3.30;;;14.30;99.90;;;;;;5030811;28;20572;-72
2021/09/28 01:21:51;;;;;;;7.07;3.47;;;14.20;99.90;;;;;;5029325;28;20617;-72
2021/09/28 01:24:19;;;;;;;6.87;3.60;;;14.20;99.90;;;;;;5026280;28;20196;-72
2021/09/28 01:26:45;;;;;;;6.87;3.87;;;14.10;99.90;;;;;;5029395;28;20210;-71
2021/09/28 01:29:12;;;;;;;5.83;3.37;;;14.00;99.90;;;;;;5030197;28;20560;-71
2021/09/28 01:31:40;;;;;;;5.43;3.30;;;14.10;99.90;;;;;;5029935;28;20653;-71
2021/09/28 01:34:07;;;;;;;7.33;3.50;;;13.90;99.90;;;;;;5033696;28;20215;-71
2021/09/28 01:36:34;;;;;;;7.17;3.80;;;13.90;99.90;;;;;;5033838;28;20641;-71
2021/09/28 01:39:03;;;;;;;6.27;3.17;;;13.90;99.90;;;;;;5034534;28;20245;-72
2021/09/28 01:41:29;;;;;;;6.00;3.80;;;13.70;99.90;;;;;;5035041;28;20215;-72
2021/09/28 01:44:07;;;;;;;5.47;3.77;;;13.80;99.90;;;;;;5034933;28;20541;-71
2021/09/28 01:46:36;;;;;;;9.37;4.00;;;13.80;99.90;;;;;;5033448;28;20200;-72
2021/09/28 01:49:03;;;;;;;5.07;3.97;;;13.80;99.90;;;;;;5028407;28;20220;-71
2021/09/28 01:51:30;;;;;;;6.90;3.90;;;13.60;99.90;;;;;;5029887;28;20204;-72
2021/09/28 01:53:57;;;;;;;7.47;3.90;;;13.50;99.90;;;;;;5035460;28;20231;-72
2021/09/28 01:56:27;;;;;;;7.17;3.90;;;13.50;99.90;;;;;;5036561;28;20200;-72
2021/09/28 01:58:54;;;;;;;4.33;3.90;;;13.30;99.90;;;;;;5033415;28;20235;-72
2021/09/28 02:01:21;;;;;;;7.27;4.57;;;13.40;99.90;;;;;;5039959;28;20212;-72
2021/09/28 02:03:48;;;;;;;9.93;4.80;;;13.40;99.90;;;;;;5034332;28;20206;-72
2021/09/28 02:06:15;;;;;;;7.83;5.00;;;13.50;99.90;;;;;;5034502;28;20559;-72
2021/09/28 02:08:42;;;;;;;8.30;4.43;;;13.50;99.90;;;;;;5032979;28;20665;-72
2021/09/28 02:11:09;;;;;;;9.10;5.30;;;13.30;99.90;;;;;;5033863;28;20200;-71
2021/09/28 02:13:37;;;;;;;7.63;5.13;;;13.30;99.90;;;;;;5034464;28;20199;-72
2021/09/28 02:16:05;;;;;;;10.13;5.80;;;13.20;99.90;;;;;;5033449;28;20230;-71
2021/09/28 02:18:32;;;;;;;9.73;5.97;;;13.30;99.90;;;;;;5037320;28;20203;-72
2021/09/28 02:20:59;;;;;;;8.83;5.13;;;13.20;99.90;;;;;;5032884;28;20200;-72
2021/09/28 02:23:26;;;;;;;8.10;5.50;;;13.20;99.90;;;;;;5033594;28;20207;-71
2021/09/28 02:25:53;;;;;;;8.07;5.77;;;13.10;99.90;;;;;;5033532;28;20204;-72
2021/09/28 02:28:21;;;;;;;9.43;5.90;;;13.10;99.90;;;;;;5033357;28;20200;-72
2021/09/28 02:30:49;;;;;;;10.60;6.07;;;13.20;99.90;;;;;;5038681;28;20237;-72
2021/09/28 02:33:16;;;;;;;9.87;5.53;;;13.10;99.90;;;;;;5031485;28;20740;-72
2021/09/28 02:35:43;;;;;;;6.50;5.70;;;13.00;99.90;;;;;;5033560;28;20235;-71
2021/09/28 02:38:10;;;;;;;8.43;6.03;;;12.90;99.90;;;;;;5032465;28;20628;-72
2021/09/28 02:40:37;;;;;;;9.10;5.30;;;13.00;99.90;;;;;;5019920;28;20195;-71
2021/09/28 02:43:04;;;;;;;9.53;5.97;;;13.00;99.90;;;;;;5032381;28;20214;-71
2021/09/28 02:45:31;;;;;;;10.80;5.90;;;12.90;99.90;;;;;;5033120;28;20200;-72
2021/09/28 02:47:59;;;;;;;6.13;5.00;;;12.90;99.90;;;;;;5029194;28;20533;-71
2021/09/28 02:50:26;;;;;;;9.37;5.37;;;13.00;99.90;;;;;;5030957;28;20206;-71
2021/09/28 02:52:53;;;;;;;8.30;5.77;;;12.90;99.90;;;;;;5032244;28;20294;-72
2021/09/28 02:55:20;;;;;;;11.53;5.40;;;12.90;99.90;;;;;;5033308;28;20212;-71
2021/09/28 02:57:47;;;;;;;9.43;6.00;;;12.80;99.90;;;;;;5032471;28;20202;-72
2021/09/28 03:00:14;;;;;;;7.70;5.93;;;12.90;99.90;;;;;;5033451;28;20278;-72
2021/09/28 03:02:41;;;;;;;11.10;6.23;;;12.90;99.90;;;;;;5031475;28;20208;-72
2021/09/28 03:05:10;;;;;;;14.20;7.80;;;12.80;99.90;;;;;;5030925;28;20200;-71
2021/09/28 03:07:37;;;;;;;11.00;7.53;;;12.80;99.90;;;;;;5033430;28;20207;-72
2021/09/28 03:10:04;;;;;;;12.63;8.23;;;12.80;99.90;;;;;;5032088;28;20667;-71
2021/09/28 03:12:31;;;;;;;10.67;7.87;;;12.90;99.90;;;;;;5033713;28;20218;-72
2021/09/28 03:14:58;;;;;;;10.50;7.83;;;12.80;99.90;;;;;;5033212;28;20234;-72
2021/09/28 03:17:25;;;;;;;12.03;8.33;;;12.80;99.90;;;;;;5032641;28;20208;-71
2021/09/28 03:19:52;;;;;;;11.07;7.90;;;12.70;99.90;;;;;;5032832;28;20204;-71
2021/09/28 03:22:20;;;;;;;14.40;7.83;;;12.60;99.90;;;;;;5031866;28;20214;-72
2021/09/28 03:24:47;;;;;;;12.00;8.50;;;12.60;99.90;;;;;;5028300;28;20200;-72
2021/09/28 03:27:14;;;;;;;12.70;8.33;;;12.70;99.90;;;;;;5032558;28;20195;-72
2021/09/28 03:29:41;;;;;;;13.10;8.50;;;12.70;99.90;;;;;;5032885;28;20216;-71
2021/09/28 03:32:09;;;;;;;16.73;8.97;;;12.70;99.90;;;;;;5033097;28;20202;-72
2021/09/28 03:34:35;;;;;;;16.23;9.20;;;12.60;99.90;;;;;;5031366;28;20215;-71
2021/09/28 03:37:02;;;;;;;12.57;8.37;;;12.50;99.90;;;;;;5031891;28;20206;-72
2021/09/28 03:39:32;;;;;;;14.27;8.20;;;12.50;99.90;;;;;;5031362;28;20204;-72
2021/09/28 03:41:59;;;;;;;11.43;8.43;;;12.60;99.90;;;;;;5032887;28;20231;-71
2021/09/28 03:44:25;;;;;;;12.23;8.80;;;12.60;99.90;;;;;;5030286;28;20585;-72
2021/09/28 03:46:52;;;;;;;12.13;8.50;;;12.60;99.90;;;;;;5033456;28;20199;-71
2021/09/28 03:49:19;;;;;;;12.63;9.30;;;12.60;99.90;;;;;;5031902;28;20578;-71
2021/09/28 03:51:46;;;;;;;12.50;8.97;;;12.60;99.90;;;;;;5031517;28;20214;-72
2021/09/28 03:54:13;;;;;;;21.13;12.70;;;12.60;99.90;;;;;;5029436;28;20210;-72
2021/09/28 03:56:41;;;;;;;15.13;9.10;;;12.50;99.90;;;;;;5031139;28;20208;-72
2021/09/28 03:59:08;;;;;;;14.43;8.33;;;12.60;99.90;;;;;;5031448;28;20199;-72
2021/09/28 04:01:34;;;;;;;12.27;8.87;;;12.60;99.90;;;;;;5032056;28;20678;-71
2021/09/28 04:04:01;;;;;;;13.30;7.70;;;12.70;99.90;;;;;;5031284;28;20665;-71
2021/09/28 04:06:28;;;;;;;13.60;8.57;;;12.70;99.90;;;;;;5031708;28;20570;-71
2021/09/28 04:08:55;;;;;;;11.10;8.30;;;12.60;99.90;;;;;;5032097;28;20212;-71
2021/09/28 04:11:22;;;;;;;11.50;8.07;;;12.60;99.90;;;;;;5031327;28;20234;-72
2021/09/28 04:13:50;;;;;;;13.47;8.67;;;12.70;99.90;;;;;;5030253;28;20206;-72
2021/09/28 04:16:17;;;;;;;11.03;7.30;;;12.70;99.90;;;;;;5033875;28;20270;-72
2021/09/28 04:18:45;;;;;;;11.00;8.17;;;12.60;99.90;;;;;;5031564;28;20216;-72
2021/09/28 04:21:12;;;;;;;9.07;7.03;;;12.50;99.90;;;;;;5031579;28;20206;-72
2021/09/28 04:23:39;;;;;;;11.57;7.60;;;12.60;99.90;;;;;;5031169;28;20213;-71
2021/09/28 04:26:06;;;;;;;8.03;6.60;;;12.60;99.90;;;;;;5029757;28;20200;-72
2021/09/28 04:28:34;;;;;;;11.53;7.17;;;12.60;99.90;;;;;;5030292;28;20208;-71
2021/09/28 04:31:03;;;;;;;9.17;6.60;;;12.60;99.90;;;;;;5027097;28;20204;-72
2021/09/28 04:33:30;;;;;;;8.23;6.57;;;12.70;99.90;;;;;;5029567;28;20200;-72
2021/09/28 04:35:57;;;;;;;10.77;6.37;;;12.50;99.90;;;;;;5026139;28;20223;-72
2021/09/28 04:38:24;;;;;;;9.83;6.13;;;12.60;99.90;;;;;;5027559;28;20199;-72
2021/09/28 04:40:50;;;;;;;9.57;5.93;;;12.40;99.90;;;;;;5031998;28;20207;-72
2021/09/28 04:43:17;;;;;;;9.23;6.00;;;12.40;99.90;;;;;;5030621;28;20204;-72
2021/09/28 04:45:44;;;;;;;13.63;6.27;;;12.40;99.90;;;;;;5030967;28;20199;-72
2021/09/28 04:48:12;;;;;;;9.50;5.73;;;12.40;99.90;;;;;;5027205;28;20210;-72
2021/09/28 04:50:39;;;;;;;12.53;6.30;;;12.40;99.90;;;;;;5034815;28;20217;-72
2021/09/28 04:53:06;;;;;;;10.83;6.53;;;12.50;99.90;;;;;;5032172;28;20566;-72
2021/09/28 04:55:33;;;;;;;13.10;6.53;;;12.30;99.90;;;;;;5030692;28;20566;-72
2021/09/28 04:58:00;;;;;;;11.10;6.23;;;12.40;99.90;;;;;;5030072;28;20199;-71
2021/09/28 05:00:26;;;;;;;9.13;5.70;;;12.40;99.90;;;;;;5031009;28;20200;-72
2021/09/28 05:02:53;;;;;;;9.43;6.07;;;12.30;99.90;;;;;;5031341;28;20227;-72
2021/09/28 05:05:21;;;;;;;13.40;8.40;;;12.20;99.90;;;;;;5033036;28;20203;-72
2021/09/28 05:07:48;;;;;;;8.87;6.43;;;12.30;99.90;;;;;;5030439;28;20676;-72
2021/09/28 05:10:15;;;;;;;9.53;6.13;;;12.20;99.90;;;;;;5030022;28;20212;-72
2021/09/28 05:12:42;;;;;;;9.10;6.47;;;12.30;99.90;;;;;;5030055;28;20650;-72
2021/09/28 05:15:09;;;;;;;9.27;6.07;;;12.30;99.90;;;;;;5030742;28;20215;-72
2021/09/28 05:17:36;;;;;;;10.07;6.43;;;12.20;99.90;;;;;;5028939;28;20206;-72
2021/09/28 05:20:04;;;;;;;13.57;7.13;;;12.20;99.90;;;;;;5029867;28;20210;-72
2021/09/28 05:22:32;;;;;;;13.17;7.37;;;12.30;99.90;;;;;;5024819;28;20196;-72
2021/09/28 05:24:59;;;;;;;13.13;7.33;;;12.30;99.90;;;;;;5031340;28;20215;-72
2021/09/28 05:27:26;;;;;;;10.20;7.23;;;12.30;99.90;;;;;;5030825;28;20211;-72
2021/09/28 05:29:53;;;;;;;13.20;8.33;;;12.20;99.90;;;;;;5030188;28;20242;-72
2021/09/28 05:32:20;;;;;;;12.67;7.93;;;12.20;99.90;;;;;;5029183;28;20207;-72
2021/09/28 05:34:46;;;;;;;10.90;7.73;;;12.20;99.90;;;;;;5029431;28;20204;-72
2021/09/28 05:37:13;;;;;;;14.93;7.97;;;12.10;99.90;;;;;;5030521;28;21217;-72
2021/09/28 05:39:41;;;;;;;13.10;7.67;;;12.10;99.90;;;;;;5032616;28;20200;-72
2021/09/28 05:42:08;;;;;;;13.00;7.80;;;12.10;99.90;;;;;;5035709;28;20199;-72
2021/09/28 05:44:35;;;;;;;15.77;8.80;;;12.10;99.90;;;;;;5030055;28;20214;-72
2021/09/28 05:47:02;;;;;;;15.90;8.30;;;12.10;99.90;;;;;;5029845;28;20200;-72
2021/09/28 05:49:29;;;;;;;12.57;8.43;;;12.00;99.90;;;;;;5029776;28;20200;-72
2021/09/28 05:51:58;;;;;;;15.57;9.33;;;12.00;99.90;;;;;;5029338;28;20700;-72
2021/09/28 05:54:26;;;;;;;16.73;9.60;;;12.10;99.90;;;;;;5029538;28;20208;-72
2021/09/28 05:56:55;;;;;;;14.27;8.83;;;12.00;99.90;;;;;;5030909;28;20752;-72
2021/09/28 05:59:22;;;;;;;14.63;9.77;;;12.10;99.90;;;;;;5030248;28;20204;-72
2021/09/28 06:01:49;;;;;;;18.50;9.93;;;12.00;99.90;;;;;;5030433;28;20208;-72
2021/09/28 06:04:17;;;;;;;17.00;9.70;;;12.10;99.90;;;;;;5027643;28;20413;-72
2021/09/28 06:06:44;;;;;;;14.93;9.67;;;12.00;99.90;;;;;;5030394;28;20670;-72
2021/09/28 06:09:11;;;;;;;16.77;10.30;;;12.20;99.90;;;;;;5029577;28;20661;-72
2021/09/28 06:11:40;;;;;;;17.60;10.00;;;12.20;99.90;;;;;;5027992;28;20200;-72
2021/09/28 06:14:08;;;;;;;17.83;10.53;;;12.20;99.90;;;;;;5030426;28;20203;-72
2021/09/28 06:16:35;;;;;;;18.77;10.97;;;12.30;99.90;;;;;;5029916;28;20234;-72
2021/09/28 06:19:02;;;;;;;19.57;10.90;;;12.30;99.90;;;;;;5029955;28;20218;-72
2021/09/28 06:21:29;;;;;;;17.77;11.10;;;12.40;99.90;;;;;;5032108;28;20684;-72
2021/09/28 06:23:56;;;;;;;20.67;12.03;;;12.40;99.90;;;;;;5033817;28;20208;-72
2021/09/28 06:26:22;;;;;;;18.50;11.63;;;12.50;99.90;;;;;;5034124;28;20645;-72
2021/09/28 06:28:49;;;;;;;23.60;12.00;;;12.60;99.90;;;;;;5033574;28;20215;-72
2021/09/28 06:31:17;;;;;;;20.67;12.17;;;12.60;99.90;;;;;;5032939;28;20695;-72
2021/09/28 06:33:44;;;;;;;19.40;11.77;;;12.70;99.90;;;;;;5031212;28;20565;-72
2021/09/28 06:36:11;;;;;;;20.63;11.73;;;12.80;99.90;;;;;;5033755;28;20223;-72
2021/09/28 06:38:38;;;;;;;22.30;12.53;;;12.80;99.90;;;;;;5032388;28;20641;-72
2021/09/28 06:41:05;;;;;;;23.70;12.50;;;13.00;99.90;;;;;;5034185;28;20566;-72
2021/09/28 06:43:32;;;;;;;21.83;12.80;;;13.00;99.90;;;;;;5031613;28;20200;-72
2021/09/28 06:45:59;;;;;;;22.07;13.63;;;13.10;99.90;;;;;;5033449;28;20195;-72
2021/09/28 06:48:28;;;;;;;29.07;14.70;;;13.10;99.90;;;;;;5032745;28;20259;-72
2021/09/28 06:50:55;;;;;;;25.97;14.80;;;13.20;99.90;;;;;;5032947;28;20214;-72
2021/09/28 06:53:21;;;;;;;24.80;14.60;;;13.30;99.90;;;;;;5031893;28;20758;-72
2021/09/28 06:55:48;;;;;;;24.60;14.70;;;13.30;99.90;;;;;;5046530;28;20220;-72
2021/09/28 06:58:15;;;;;;;23.57;14.20;;;13.50;99.90;;;;;;5033174;28;20642;-72
2021/09/28 07:00:42;;;;;;;30.80;16.63;;;13.60;99.90;;;;;;5032127;28;20206;-72
2021/09/28 07:03:09;;;;;;;28.87;16.30;;;13.70;99.90;;;;;;5032559;28;20327;-72
2021/09/28 07:05:37;;;;;;;29.83;17.27;;;13.70;99.90;;;;;;5033082;28;20646;-72
2021/09/28 07:08:04;;;;;;;30.27;16.57;;;13.80;99.90;;;;;;5032897;28;20218;-72
2021/09/28 07:10:31;;;;;;;33.97;18.20;;;13.80;99.90;;;;;;5030550;28;20670;-72
2021/09/28 07:12:58;;;;;;;32.27;17.40;;;13.80;99.90;;;;;;5031108;28;20214;-72
2021/09/28 07:15:25;;;;;;;29.27;17.30;;;14.00;99.90;;;;;;5032134;28;20199;-72
2021/09/28 07:17:53;;;;;;;29.43;18.70;;;14.00;99.90;;;;;;5033441;28;20204;-72
2021/09/28 07:20:20;;;;;;;31.53;18.23;;;14.00;99.90;;;;;;5032436;28;20216;-72
2021/09/28 07:22:49;;;;;;;31.10;18.00;;;14.20;99.90;;;;;;5030637;28;20212;-72
2021/09/28 07:25:16;;;;;;;36.57;20.27;;;14.10;99.90;;;;;;5032724;28;20211;-72
2021/09/28 07:27:43;;;;;;;38.43;21.40;;;14.20;99.90;;;;;;5030889;28;20204;-72
2021/09/28 07:30:12;;;;;;;33.07;19.80;;;14.20;99.90;;;;;;5032446;28;20238;-72
2021/09/28 07:32:39;;;;;;;38.93;20.27;;;14.20;99.90;;;;;;5031779;28;20206;-71
2021/09/28 07:35:07;;;;;;;36.30;20.10;;;14.20;99.90;;;;;;5031868;28;20290;-71
2021/09/28 07:37:34;;;;;;;35.90;20.57;;;14.60;99.90;;;;;;5030379;28;20251;-72
2021/09/28 07:40:04;;;;;;;35.00;19.83;;;14.10;99.90;;;;;;5030739;28;20515;-72
2021/09/28 07:42:31;;;;;;;32.53;20.00;;;14.30;99.90;;;;;;5031793;28;20196;-72
2021/09/28 07:44:59;;;;;;;34.73;19.37;;;14.30;99.90;;;;;;5031825;28;20203;-72
2021/09/28 07:47:26;;;;;;;35.43;19.63;;;14.30;99.90;;;;;;5030998;28;20718;-72
2021/09/28 07:49:53;;;;;;;34.83;19.63;;;14.60;99.90;;;;;;5031981;28;20704;-72
2021/09/28 07:52:23;;;;;;;35.23;20.07;;;14.50;99.90;;;;;;5031949;28;20203;-71
2021/09/28 07:54:50;;;;;;;33.67;18.83;;;14.40;99.90;;;;;;5031356;28;20204;-72
2021/09/28 07:57:18;;;;;;;35.13;20.13;;;14.40;99.90;;;;;;5031069;28;20219;-72
2021/09/28 07:59:45;;;;;;;32.10;19.73;;;14.50;99.90;;;;;;5031934;28;20220;-72
2021/09/28 08:02:11;;;;;;;34.23;20.80;;;14.50;99.90;;;;;;5030809;28;20210;-71
2021/09/28 08:04:40;;;;;;;35.10;21.20;;;14.40;99.90;;;;;;5032579;28;20203;-72
2021/09/28 08:07:12;;;;;;;32.57;20.50;;;14.40;99.90;;;;;;5028905;28;20230;-72
2021/09/28 08:09:39;;;;;;;33.70;20.20;;;14.30;99.90;;;;;;5029289;28;20207;-72
2021/09/28 08:12:07;;;;;;;34.97;20.00;;;14.30;99.90;;;;;;5031256;28;21263;-71
2021/09/28 08:14:36;;;;;;;33.27;20.07;;;14.40;99.90;;;;;;5031522;28;20211;-72
2021/09/28 08:17:04;;;;;;;33.50;20.77;;;14.50;99.90;;;;;;5029411;28;20220;-71
2021/09/28 08:19:32;;;;;;;33.90;19.83;;;14.60;99.90;;;;;;5030882;28;20653;-72
2021/09/28 08:21:59;;;;;;;32.23;19.97;;;14.50;99.90;;;;;;5031079;28;20203;-71
2021/09/28 08:24:26;;;;;;;37.03;20.43;;;14.60;99.90;;;;;;5031006;28;20723;-71
2021/09/28 08:29:39;;;;;;;31.33;20.23;;;14.80;99.90;;;;;;5027836;28;20217;-71
2021/09/28 08:32:06;;;;;;;33.17;19.83;;;14.60;99.90;;;;;;5027708;28;20207;-72
2021/09/28 08:34:33;;;;;;;37.53;21.30;;;14.80;99.90;;;;;;5031345;28;20641;-72
2021/09/28 08:37:00;;;;;;;29.93;19.63;;;15.00;99.90;;;;;;5030513;28;20685;-72
2021/09/28 08:39:27;;;;;;;33.97;20.20;;;14.90;99.90;;;;;;5026688;28;20798;-72
2021/09/28 08:41:54;;;;;;;32.97;20.77;;;15.00;99.90;;;;;;5030011;28;20206;-72
2021/09/28 08:44:21;;;;;;;33.13;19.87;;;15.20;99.90;;;;;;5029321;28;20196;-72
2021/09/28 08:46:50;;;;;;;31.42;20.10;;;15.30;99.90;;;;;;5028961;28;20480;-73
2021/09/28 08:49:20;;;;;;;35.23;21.40;;;15.20;99.90;;;;;;5030623;28;20222;-72
2021/09/28 08:51:47;;;;;;;34.50;21.00;;;15.20;99.90;;;;;;5029272;28;20234;-72
2021/09/28 08:54:14;;;;;;;35.57;21.23;;;15.30;99.90;;;;;;5031183;28;20204;-72
2021/09/28 08:56:41;;;;;;;34.03;21.03;;;15.30;99.90;;;;;;5031295;28;20230;-72
2021/09/28 08:59:10;;;;;;;33.47;20.43;;;15.50;99.90;;;;;;5030560;28;20204;-72
2021/09/28 09:01:38;;;;;;;29.27;19.57;;;15.40;99.90;;;;;;5029262;28;20658;-72
2021/09/28 09:04:17;;;;;;;34.13;20.97;;;15.30;99.90;;;;;;5029139;28;20209;-71
2021/09/28 09:06:45;;;;;;;32.97;21.27;;;15.10;99.90;;;;;;5027537;28;20203;-72
2021/09/28 09:09:13;;;;;;;28.10;19.63;;;15.30;99.90;;;;;;5030531;28;20204;-72
2021/09/28 09:11:44;;;;;;;33.90;21.08;;;15.50;99.90;;;;;;5030594;28;20226;-72
2021/09/28 09:14:16;;;;;;;28.97;20.03;;;15.80;99.90;;;;;;5026623;28;20207;-71
2021/09/28 09:16:44;;;;;;;28.02;20.40;;;15.90;99.90;;;;;;5023354;28;20223;-71
2021/09/28 09:19:13;;;;;;;32.13;21.02;;;15.80;99.90;;;;;;5029348;28;20200;-72
2021/09/28 09:21:47;;;;;;;32.75;21.15;;;15.80;99.90;;;;;;5030044;28;20210;-71
2021/09/28 09:24:39;;;;;;;30.55;21.02;;;16.40;99.90;;;;;;5029881;28;20214;-72
2021/09/28 09:27:06;;;;;;;29.17;19.88;;;16.60;99.90;;;;;;5029874;28;20572;-72
2021/09/28 09:29:33;;;;;;;25.52;18.55;;;16.90;99.90;;;;;;5029396;28;20217;-72
2021/09/28 09:32:00;;;;;;;28.35;18.63;;;16.60;99.90;;;;;;5029093;28;20203;-72
2021/09/28 09:34:27;;;;;;;28.70;18.17;;;16.40;99.90;;;;;;5028880;28;20231;-72
2021/09/28 09:36:58;;;;;;;24.98;18.30;;;16.00;99.90;;;;;;5028820;28;20337;-72
2021/09/28 09:39:26;;;;;;;26.63;17.27;;;16.10;99.90;;;;;;5036110;28;20638;-71
2021/09/28 09:42:04;;;;;;;28.63;17.63;;;16.20;99.90;;;;;;5033016;28;20203;-72
2021/09/28 09:44:31;;;;;;;22.17;14.90;;;16.40;99.90;;;;;;5023967;28;20638;-71
2021/09/28 09:47:00;;;;;;;23.85;16.00;;;16.10;99.90;;;;;;5030477;28;20207;-72
2021/09/28 09:49:30;;;;;;;24.60;16.90;;;16.00;99.90;;;;;;5030355;28;20234;-72
2021/09/28 09:52:09;;;;;;;26.80;17.17;;;15.70;99.90;;;;;;5027887;28;20285;-72
2021/09/28 09:54:37;;;;;;;33.05;17.65;;;16.00;99.90;;;;;;5027259;28;20211;-72
2021/09/28 09:57:05;;;;;;;30.00;17.67;;;16.20;99.90;;;;;;5034596;28;20712;-72
2021/09/28 09:59:33;;;;;;;27.88;16.73;;;16.00;99.90;;;;;;5035619;28;20215;-72
2021/09/28 10:02:00;;;;;;;26.27;17.35;;;16.40;99.90;;;;;;5033636;28;20582;-72
2021/09/28 10:04:26;;;;;;;26.02;17.13;;;16.50;99.90;;;;;;5030937;28;20210;-72
2021/09/28 10:06:54;;;;;;;26.23;15.43;;;16.50;99.90;;;;;;5033103;28;20200;-71
2021/09/28 10:09:25;;;;;;;25.25;14.48;;;16.60;99.90;;;;;;5033819;28;20562;-72
2021/09/28 10:11:53;;;;;;;23.10;15.18;;;16.80;99.90;;;;;;5033420;28;20211;-71
2021/09/28 10:14:35;;;;;;;23.25;15.63;;;16.50;99.90;;;;;;5027800;28;20210;-71
2021/09/28 10:17:39;;;;;;;25.85;16.13;;;16.60;99.90;;;;;;5034602;28;20223;-72
2021/09/28 10:20:07;;;;;;;25.80;15.15;;;16.70;99.90;;;;;;5036425;28;20448;-72
2021/09/28 10:22:53;;;;;;;24.75;15.77;;;16.90;99.90;;;;;;5027576;28;20200;-72
2021/09/28 10:25:44;;;;;;;23.25;14.25;;;17.60;99.90;;;;;;5032904;28;20239;-72
2021/09/28 10:28:30;;;;;;;24.23;14.55;;;17.90;99.90;;;;;;5032610;28;20212;-72
2021/09/28 10:30:58;;;;;;;17.20;12.13;;;18.10;99.90;;;;;;5031358;28;20558;-71
2021/09/28 10:33:31;;;;;;;21.73;12.77;;;18.30;99.90;;;;;;5030002;28;20218;-72
2021/09/28 10:35:59;;;;;;;18.05;12.40;;;18.10;99.90;;;;;;5029868;28;20239;-72
2021/09/28 10:38:58;;;;;;;19.50;12.52;;;18.30;99.90;;;;;;5027586;28;20231;-71
2021/09/28 10:41:46;;;;;;;18.27;11.77;;;18.30;99.90;;;;;;5023412;28;20207;-72
2021/09/28 10:44:47;;;;;;;15.45;10.13;;;18.60;99.90;;;;;;5029939;28;20650;-71
2021/09/28 10:47:47;;;;;;;16.98;10.32;;;18.80;99.90;;;;;;5030406;28;20198;-71
2021/09/28 10:50:22;;;;;;;18.48;11.07;;;18.70;99.90;;;;;;5027044;28;20203;-71
2021/09/28 10:52:50;;;;;;;16.80;9.23;;;18.80;99.90;;;;;;5030553;28;20215;-72
2021/09/28 10:55:42;;;;;;;15.07;9.10;;;19.20;99.90;;;;;;5033400;28;20214;-72
2021/09/28 10:58:25;;;;;;;15.25;9.07;;;19.10;99.90;;;;;;5038526;28;20834;-72
2021/09/28 11:01:11;;;;;;;21.08;10.43;;;19.30;99.90;;;;;;5028984;28;20636;-72
2021/09/28 11:03:51;;;;;;;17.80;8.98;;;18.90;99.90;;;;;;5031159;28;20207;-72
2021/09/28 11:06:39;;;;;;;16.27;9.10;;;19.30;99.90;;;;;;5033397;28;20208;-72
2021/09/28 11:09:05;;;;;;;15.35;8.75;;;18.60;99.90;;;;;;5020294;28;20206;-72
2021/09/28 11:11:33;;;;;;;14.45;8.80;;;19.00;99.90;;;;;;5031702;28;20200;-72
2021/09/28 11:14:03;;;;;;;14.85;8.63;;;19.40;99.90;;;;;;5029109;28;20650;-72
2021/09/28 11:16:38;;;;;;;14.80;8.38;;;19.30;99.90;;;;;;5032345;28;20199;-71
2021/09/28 11:19:10;;;;;;;14.18;9.07;;;18.80;99.90;;;;;;5027930;28;20640;-71
2021/09/28 11:21:44;;;;;;;12.80;7.68;;;18.60;99.90;;;;;;5031518;28;20203;-72
2021/09/28 11:24:13;;;;;;;12.48;7.60;;;18.70;99.90;;;;;;5027387;28;20204;-72
2021/09/28 11:26:43;;;;;;;9.98;7.15;;;18.90;99.90;;;;;;5034508;28;20218;-71
2021/09/28 11:29:18;;;;;;;12.73;6.63;;;19.30;99.90;;;;;;5027858;28;20265;-71
2021/09/28 11:31:45;;;;;;;12.55;5.90;;;19.40;99.90;;;;;;5029619;28;20223;-71
2021/09/28 11:34:12;;;;;;;12.95;6.60;;;19.20;99.90;;;;;;5027608;28;20226;-71
2021/09/28 11:36:53;;;;;;;13.70;6.22;;;19.50;99.90;;;;;;5028727;28;20195;-71
2021/09/28 11:39:21;;;;;;;12.20;7.03;;;19.30;99.90;;;;;;5031639;28;20652;-71
2021/09/28 11:41:48;;;;;;;13.38;7.43;;;19.80;99.90;;;;;;5033145;28;20311;-71
2021/09/28 11:44:17;;;;;;;10.10;5.78;;;19.80;99.90;;;;;;5033406;28;20202;-72
2021/09/28 11:46:44;;;;;;;9.48;5.82;;;19.60;99.90;;;;;;5033354;28;20203;-73
2021/09/28 11:49:11;;;;;;;11.85;6.35;;;19.70;99.90;;;;;;5031172;28;20615;-72
2021/09/28 11:51:40;;;;;;;9.48;5.80;;;19.70;99.90;;;;;;5023949;28;20207;-72
2021/09/28 11:54:08;;;;;;;13.00;6.65;;;19.50;99.90;;;;;;5031772;28;20213;-72
2021/09/28 11:56:37;;;;;;;13.45;7.65;;;19.70;99.90;;;;;;5032828;28;20204;-72
2021/09/28 11:59:04;;;;;;;11.63;6.20;;;19.60;99.90;;;;;;5030798;28;20273;-72
2021/09/28 12:01:33;;;;;;;12.75;5.97;;;19.60;99.90;;;;;;5032654;28;20586;-72
2021/09/28 12:04:14;;;;;;;12.43;6.10;;;19.50;99.90;;;;;;5031725;28;20200;-72
2021/09/28 12:07:00;;;;;;;11.48;5.72;;;19.70;99.90;;;;;;5047031;28;20210;-72
2021/09/28 12:09:28;;;;;;;8.30;5.80;;;19.30;99.90;;;;;;5029340;28;20273;-72
2021/09/28 12:11:59;;;;;;;10.07;5.82;;;19.90;99.90;;;;;;5029761;28;20561;-72
2021/09/28 12:14:34;;;;;;;12.55;6.05;;;19.90;99.90;;;;;;5027429;28;20207;-72
2021/09/28 12:17:14;;;;;;;8.25;4.97;;;20.00;99.90;;;;;;5027610;28;20200;-72
2021/09/28 12:19:44;;;;;;;12.18;5.22;;;19.80;99.90;;;;;;5020979;28;20219;-72
2021/09/28 12:22:11;;;;;;;11.70;4.97;;;20.10;99.90;;;;;;5020430;28;20813;-72
2021/09/28 12:24:48;;;;;;;7.32;4.50;;;20.00;99.90;;;;;;5030988;28;20536;-72
2021/09/28 12:27:16;;;;;;;10.07;4.88;;;20.10;99.90;;;;;;5032139;28;20207;-73
2021/09/28 12:29:45;;;;;;;10.43;5.20;;;19.80;99.90;;;;;;5031209;28;20585;-72
2021/09/28 12:32:21;;;;;;;8.32;4.53;;;20.00;99.90;;;;;;5032103;28;20199;-72
2021/09/28 12:34:57;;;;;;;8.23;3.80;;;20.20;99.90;;;;;;5032409;28;20218;-72
2021/09/28 12:37:24;;;;;;;6.25;3.90;;;20.40;99.90;;;;;;5031191;28;20241;-72
2021/09/28 12:40:07;;;;;;;6.78;3.90;;;20.20;99.90;;;;;;5028083;28;20200;-72
2021/09/28 12:42:36;;;;;;;8.43;3.33;;;20.50;99.90;;;;;;5030568;28;20210;-72
2021/09/28 12:45:05;;;;;;;5.47;3.25;;;20.30;99.90;;;;;;5024605;28;20211;-72
2021/09/28 12:47:37;;;;;;;6.50;3.67;;;20.20;99.90;;;;;;5027858;28;20199;-72